Time;durP1;ratioP1;P1;durP2;ratioP2;P2;SDS_P1;SDS_P2;PMS_P1;PMS_P2;Temp;Humidity;BMP_temperature;BMP_pressure;BME280_temperature;BME280_humidity;BME280_pressure;Samples;Min_cycle;Max_cycle;Signal;HPM_P1;HPM_P2
2023/03/10 00:01:14;;;;;;;10.75;7.13;;;;;;;;;;4997878;28;88987;-71
2023/03/10 00:03:40;;;;;;;10.70;7.25;;;;;;;;;;4996834;28;88762;-71
2023/03/10 00:06:08;;;;;;;10.13;7.30;;;;;;;;;;4997564;28;89624;-71
2023/03/10 00:08:34;;;;;;;10.93;7.18;;;;;;;;;;5000804;28;88872;-71
2023/03/10 00:11:01;;;;;;;10.57;6.50;;;;;;;;;;4990134;28;88752;-70
2023/03/10 00:13:27;;;;;;;9.32;6.82;;;;;;;;;;4992490;28;88784;-71
2023/03/10 00:15:53;;;;;;;11.63;6.82;;;;;;;;;;4997095;28;88284;-70
2023/03/10 00:18:20;;;;;;;11.93;7.63;;;;;;;;;;4993804;28;88000;-71
2023/03/10 00:20:48;;;;;;;12.32;7.90;;;;;;;;;;4977898;28;88240;-71
2023/03/10 00:23:15;;;;;;;10.48;7.32;;;;;;;;;;4977816;28;88354;-71
2023/03/10 00:25:41;;;;;;;10.32;7.32;;;;;;;;;;4992028;28;88783;-70
2023/03/10 00:28:07;;;;;;;9.27;6.82;;;;;;;;;;4992586;28;89734;-73
2023/03/10 00:30:34;;;;;;;11.77;7.60;;;;;;;;;;4998108;28;88267;-71
2023/03/10 00:33:01;;;;;;;10.98;6.93;;;;;;;;;;4980796;28;88914;-71
2023/03/10 00:35:27;;;;;;;7.82;6.25;;;;;;;;;;4987571;28;88019;-71
2023/03/10 00:37:54;;;;;;;8.15;6.30;;;;;;;;;;4995988;28;88763;-71
2023/03/10 00:40:21;;;;;;;7.80;6.00;;;;;;;;;;4995963;28;89004;-71
2023/03/10 00:42:47;;;;;;;8.43;6.18;;;;;;;;;;4978168;28;88961;-71
2023/03/10 00:45:14;;;;;;;7.88;6.25;;;;;;;;;;4996182;28;90226;-71
2023/03/10 00:47:40;;;;;;;7.45;6.05;;;;;;;;;;4994582;28;89048;-71
2023/03/10 00:50:07;;;;;;;8.10;5.75;;;;;;;;;;4983593;28;88284;-71
2023/03/10 00:52:33;;;;;;;7.82;5.90;;;;;;;;;;4999224;28;88984;-71
2023/03/10 00:54:59;;;;;;;8.30;6.30;;;;;;;;;;4981523;28;89470;-71
2023/03/10 00:57:26;;;;;;;7.43;5.95;;;;;;;;;;4986810;28;88764;-71
2023/03/10 00:59:52;;;;;;;8.10;5.85;;;;;;;;;;4979542;28;88984;-71
2023/03/10 01:02:18;;;;;;;7.40;5.93;;;;;;;;;;4983191;28;88666;-71
2023/03/10 01:04:45;;;;;;;7.95;5.95;;;;;;;;;;4983647;28;89899;-71
2023/03/10 01:07:12;;;;;;;6.65;5.95;;;;;;;;;;4995317;28;89138;-71
2023/03/10 01:09:38;;;;;;;7.97;5.78;;;;;;;;;;4995950;28;88868;-71
2023/03/10 01:12:04;;;;;;;7.57;6.00;;;;;;;;;;4981819;28;88033;-71
2023/03/10 01:14:31;;;;;;;8.38;5.63;;;;;;;;;;4992415;28;89103;-71
2023/03/10 01:16:58;;;;;;;7.15;5.28;;;;;;;;;;4992842;28;90011;-72
2023/03/10 01:19:24;;;;;;;9.35;6.30;;;;;;;;;;4998245;28;88953;-71
2023/03/10 01:21:51;;;;;;;6.72;5.88;;;;;;;;;;4992618;28;89411;-71
2023/03/10 01:24:17;;;;;;;7.25;6.10;;;;;;;;;;4995701;28;89482;-71
2023/03/10 01:26:43;;;;;;;7.28;5.85;;;;;;;;;;4990051;28;88964;-71
2023/03/10 01:29:10;;;;;;;8.07;6.13;;;;;;;;;;4998298;28;89019;-72
2023/03/10 01:31:40;;;;;;;7.47;5.93;;;;;;;;;;4998358;28;88772;-71
2023/03/10 01:34:07;;;;;;;7.03;6.07;;;;;;;;;;5001430;28;89372;-70
2023/03/10 01:36:33;;;;;;;8.27;6.25;;;;;;;;;;4985636;28;88043;-70
2023/03/10 01:38:59;;;;;;;7.78;6.13;;;;;;;;;;4999349;28;90039;-71
2023/03/10 01:41:26;;;;;;;8.20;5.75;;;;;;;;;;4983257;28;88999;-71
2023/03/10 01:43:53;;;;;;;9.88;6.82;;;;;;;;;;4988206;28;89710;-71
2023/03/10 01:46:23;;;;;;;9.32;6.35;;;;;;;;;;4991253;28;91215;-70
2023/03/10 01:48:49;;;;;;;8.90;6.80;;;;;;;;;;4999517;28;87940;-73
2023/03/10 01:51:17;;;;;;;8.95;6.88;;;;;;;;;;4992090;28;89237;-71
2023/03/10 01:53:43;;;;;;;11.30;7.28;;;;;;;;;;4997451;28;89941;-72
2023/03/10 01:56:09;;;;;;;10.43;7.18;;;;;;;;;;4998809;28;88276;-71
2023/03/10 01:58:38;;;;;;;10.80;7.20;;;;;;;;;;4988806;28;88404;-71
2023/03/10 02:01:05;;;;;;;9.35;6.78;;;;;;;;;;4986083;28;88317;-71
2023/03/10 02:03:33;;;;;;;9.13;6.35;;;;;;;;;;4996297;28;88826;-71
2023/03/10 02:06:02;;;;;;;10.55;7.50;;;;;;;;;;4989411;28;89894;-71
2023/03/10 02:08:30;;;;;;;10.25;7.22;;;;;;;;;;4994182;28;88203;-70
2023/03/10 02:10:56;;;;;;;10.57;7.40;;;;;;;;;;5000304;28;88779;-70
2023/03/10 02:13:23;;;;;;;11.05;7.22;;;;;;;;;;4987566;28;88998;-70
2023/03/10 02:15:49;;;;;;;9.50;6.78;;;;;;;;;;5000686;28;88078;-70
2023/03/10 02:18:16;;;;;;;9.18;6.93;;;;;;;;;;5002838;28;88776;-70
2023/03/10 02:20:47;;;;;;;10.43;7.25;;;;;;;;;;4999338;28;88141;-70
2023/03/10 02:23:29;;;;;;;11.45;6.93;;;;;;;;;;5000343;28;88888;-73
2023/03/10 02:26:00;;;;;;;11.65;7.25;;;;;;;;;;4987085;28;89308;-71
2023/03/10 02:28:26;;;;;;;8.85;6.85;;;;;;;;;;5005697;28;88158;-70
2023/03/10 02:30:53;;;;;;;10.00;7.05;;;;;;;;;;4996393;28;89192;-70
2023/03/10 02:33:21;;;;;;;9.23;6.97;;;;;;;;;;4979380;28;88308;-72
2023/03/10 02:35:48;;;;;;;8.48;6.93;;;;;;;;;;4987906;28;87981;-70
2023/03/10 02:38:14;;;;;;;8.25;6.63;;;;;;;;;;4993014;28;88760;-71
2023/03/10 02:40:40;;;;;;;10.43;7.15;;;;;;;;;;5000420;28;88763;-70
2023/03/10 02:43:13;;;;;;;8.25;6.30;;;;;;;;;;4996729;28;88774;-72
2023/03/10 02:45:41;;;;;;;9.32;6.70;;;;;;;;;;4993955;28;89522;-71
2023/03/10 02:48:09;;;;;;;8.82;7.43;;;;;;;;;;4997613;28;87856;-71
2023/03/10 02:50:36;;;;;;;12.63;8.50;;;;;;;;;;4998423;28;88233;-71
2023/03/10 02:53:10;;;;;;;9.07;6.88;;;;;;;;;;4988616;28;89215;-71
2023/03/10 02:55:36;;;;;;;9.43;7.07;;;;;;;;;;4995563;28;89020;-71
2023/03/10 02:58:03;;;;;;;8.10;6.13;;;;;;;;;;4985871;28;90388;-71
2023/03/10 03:00:29;;;;;;;9.38;7.40;;;;;;;;;;4996825;28;89019;-71
2023/03/10 03:02:56;;;;;;;7.85;6.22;;;;;;;;;;5001188;28;87973;-71
2023/03/10 03:05:23;;;;;;;11.43;6.85;;;;;;;;;;4986553;28;88647;-71
2023/03/10 03:07:49;;;;;;;10.48;7.03;;;;;;;;;;4997146;28;88140;-71
2023/03/10 03:10:15;;;;;;;8.80;6.82;;;;;;;;;;4988652;28;90225;-71
2023/03/10 03:12:42;;;;;;;8.15;6.68;;;;;;;;;;4986532;28;88114;-71
2023/03/10 03:15:08;;;;;;;7.85;6.80;;;;;;;;;;5004139;28;88219;-71
2023/03/10 03:17:34;;;;;;;8.52;6.55;;;;;;;;;;5005147;28;89023;-71
2023/03/10 03:20:01;;;;;;;7.38;6.10;;;;;;;;;;4996786;28;89865;-71
2023/03/10 03:22:27;;;;;;;8.75;6.82;;;;;;;;;;4989197;28;88219;-71
2023/03/10 03:24:53;;;;;;;7.10;6.10;;;;;;;;;;4990728;28;88605;-71
2023/03/10 03:27:20;;;;;;;8.32;6.45;;;;;;;;;;4996848;28;88034;-70
2023/03/10 03:29:46;;;;;;;9.55;6.53;;;;;;;;;;4985890;28;88666;-70
2023/03/10 03:32:12;;;;;;;7.28;6.28;;;;;;;;;;4997036;28;89096;-70
2023/03/10 03:34:39;;;;;;;8.32;6.47;;;;;;;;;;4982227;28;89817;-70
2023/03/10 03:37:05;;;;;;;7.80;6.35;;;;;;;;;;4997942;28;89043;-71
2023/03/10 03:39:31;;;;;;;8.10;6.43;;;;;;;;;;4986493;28;89049;-71
2023/03/10 03:41:58;;;;;;;7.30;5.97;;;;;;;;;;4995531;28;88337;-72
2023/03/10 03:44:24;;;;;;;8.65;7.00;;;;;;;;;;4991219;28;88748;-71
2023/03/10 03:46:50;;;;;;;8.57;6.53;;;;;;;;;;4998076;28;88228;-71
2023/03/10 03:49:17;;;;;;;8.40;6.45;;;;;;;;;;4995966;28;89246;-72
2023/03/10 03:51:43;;;;;;;8.60;5.93;;;;;;;;;;4996904;28;89798;-71
2023/03/10 03:54:09;;;;;;;7.32;6.22;;;;;;;;;;4994703;28;89147;-72
2023/03/10 03:56:36;;;;;;;8.32;6.22;;;;;;;;;;4996395;28;88258;-72
2023/03/10 03:59:02;;;;;;;7.55;5.80;;;;;;;;;;4995109;28;89313;-72
2023/03/10 04:01:28;;;;;;;8.63;6.22;;;;;;;;;;4995125;28;87823;-72
2023/03/10 04:03:54;;;;;;;8.65;6.43;;;;;;;;;;4994713;28;88280;-72
2023/03/10 04:06:21;;;;;;;7.43;6.25;;;;;;;;;;4997766;28;89380;-72
2023/03/10 04:08:48;;;;;;;8.10;6.22;;;;;;;;;;4995626;28;88773;-72
2023/03/10 04:11:14;;;;;;;9.40;6.30;;;;;;;;;;4989715;28;88744;-72
2023/03/10 04:13:42;;;;;;;8.35;5.43;;;;;;;;;;4989617;28;88030;-72
2023/03/10 04:16:08;;;;;;;7.82;5.90;;;;;;;;;;4994572;28;88769;-72
2023/03/10 04:18:35;;;;;;;7.20;5.60;;;;;;;;;;4996699;28;89998;-72
2023/03/10 04:21:01;;;;;;;8.27;5.47;;;;;;;;;;4997160;28;89257;-72
2023/03/10 04:23:28;;;;;;;10.00;6.20;;;;;;;;;;4985912;28;88456;-72
2023/03/10 04:25:54;;;;;;;7.97;5.63;;;;;;;;;;4987537;28;88143;-72
2023/03/10 04:28:20;;;;;;;6.60;5.00;;;;;;;;;;4997925;28;88156;-72
2023/03/10 04:30:47;;;;;;;5.97;4.95;;;;;;;;;;4996401;28;89428;-71
2023/03/10 04:33:13;;;;;;;10.60;5.43;;;;;;;;;;4992178;28;88778;-72
2023/03/10 04:35:46;;;;;;;6.07;5.05;;;;;;;;;;4981350;28;89547;-72
2023/03/10 04:38:12;;;;;;;5.65;4.93;;;;;;;;;;5006208;28;89995;-72
2023/03/10 04:40:38;;;;;;;8.18;5.90;;;;;;;;;;4988923;28;88119;-71
2023/03/10 04:43:05;;;;;;;7.63;5.82;;;;;;;;;;4996190;28;90488;-72
2023/03/10 04:45:31;;;;;;;7.93;5.97;;;;;;;;;;4982878;28;89017;-72
2023/03/10 04:47:57;;;;;;;6.30;5.10;;;;;;;;;;4993010;28;88115;-72
2023/03/10 04:50:24;;;;;;;6.85;5.55;;;;;;;;;;4999929;28;88912;-72
2023/03/10 04:52:50;;;;;;;6.80;5.55;;;;;;;;;;4988623;28;88746;-72
2023/03/10 04:55:16;;;;;;;7.45;5.22;;;;;;;;;;4994469;28;88823;-73
2023/03/10 04:57:43;;;;;;;6.45;5.18;;;;;;;;;;4995576;28;90465;-72
2023/03/10 05:00:11;;;;;;;7.72;5.63;;;;;;;;;;4996058;28;88656;-72
2023/03/10 05:02:38;;;;;;;7.32;5.30;;;;;;;;;;4995332;28;88926;-72
2023/03/10 05:05:04;;;;;;;6.40;5.35;;;;;;;;;;4988143;28;91111;-73
2023/03/10 05:07:31;;;;;;;6.88;5.68;;;;;;;;;;4994985;28;88252;-71
2023/03/10 05:09:57;;;;;;;5.90;5.25;;;;;;;;;;5007725;28;88572;-71
2023/03/10 05:12:23;;;;;;;7.70;6.03;;;;;;;;;;4999128;28;89275;-71
2023/03/10 05:14:50;;;;;;;5.80;5.20;;;;;;;;;;5006675;28;88718;-71
2023/03/10 05:17:16;;;;;;;10.98;5.63;;;;;;;;;;4988076;28;91556;-71
2023/03/10 05:19:42;;;;;;;6.80;5.43;;;;;;;;;;4981212;28;88207;-70
2023/03/10 05:22:11;;;;;;;7.78;6.13;;;;;;;;;;4984129;28;88789;-71
2023/03/10 05:24:37;;;;;;;6.45;5.57;;;;;;;;;;4980696;28;89013;-72
2023/03/10 05:27:03;;;;;;;7.10;5.57;;;;;;;;;;4977718;28;88404;-72
2023/03/10 05:29:30;;;;;;;8.00;6.15;;;;;;;;;;4976884;28;88823;-72
2023/03/10 05:31:56;;;;;;;8.88;6.50;;;;;;;;;;4976857;28;89376;-71
2023/03/10 05:34:24;;;;;;;9.27;6.50;;;;;;;;;;4979551;28;88061;-72
2023/03/10 05:36:50;;;;;;;8.15;6.20;;;;;;;;;;4977280;28;89016;-72
2023/03/10 05:39:16;;;;;;;8.35;6.63;;;;;;;;;;4990680;28;88177;-72
2023/03/10 05:41:43;;;;;;;9.60;6.63;;;;;;;;;;4994824;28;88141;-72
2023/03/10 05:44:09;;;;;;;12.05;7.13;;;;;;;;;;4995443;28;87984;-71
2023/03/10 05:46:35;;;;;;;9.73;6.53;;;;;;;;;;4991347;28;88722;-71
2023/03/10 05:49:02;;;;;;;9.98;7.30;;;;;;;;;;4980139;28;89825;-70
2023/03/10 05:51:28;;;;;;;8.57;6.35;;;;;;;;;;4993813;28;89097;-70
2023/03/10 05:53:54;;;;;;;10.88;7.18;;;;;;;;;;4994265;28;88146;-70
2023/03/10 05:56:21;;;;;;;12.70;7.57;;;;;;;;;;4993918;28;88902;-70
2023/03/10 05:58:49;;;;;;;9.07;6.97;;;;;;;;;;4980118;28;88046;-70
2023/03/10 06:01:16;;;;;;;10.38;7.13;;;;;;;;;;4976791;28;87945;-71
2023/03/10 06:03:43;;;;;;;11.98;7.65;;;;;;;;;;4993928;28;88289;-71
2023/03/10 06:06:10;;;;;;;10.82;6.90;;;;;;;;;;4997834;28;88967;-70
2023/03/10 06:08:36;;;;;;;17.48;7.78;;;;;;;;;;4998185;28;90162;-70
2023/03/10 06:11:03;;;;;;;10.35;6.40;;;;;;;;;;4998861;28;90909;-70
2023/03/10 06:13:30;;;;;;;8.70;6.68;;;;;;;;;;4992915;28;88874;-70
2023/03/10 06:15:58;;;;;;;10.30;7.03;;;;;;;;;;5001650;28;88678;-71
2023/03/10 06:18:25;;;;;;;8.90;6.18;;;;;;;;;;4994104;28;88098;-71
2023/03/10 06:20:52;;;;;;;11.07;6.85;;;;;;;;;;4997740;28;88694;-71
2023/03/10 06:23:19;;;;;;;10.27;6.82;;;;;;;;;;4997897;28;92256;-70
2023/03/10 06:25:54;;;;;;;16.52;6.20;;;;;;;;;;4999477;28;88281;-70
2023/03/10 06:28:20;;;;;;;9.38;6.03;;;;;;;;;;4994457;28;87463;-71
2023/03/10 06:30:52;;;;;;;11.98;5.95;;;;;;;;;;5001204;28;89002;-70
2023/03/10 06:33:18;;;;;;;12.13;5.90;;;;;;;;;;4988509;28;88080;-70
2023/03/10 06:35:45;;;;;;;7.22;5.93;;;;;;;;;;4989143;28;90149;-71
2023/03/10 06:38:11;;;;;;;10.27;6.03;;;;;;;;;;4989388;28;91039;-71
2023/03/10 06:40:37;;;;;;;10.82;6.57;;;;;;;;;;4991500;28;89137;-70
2023/03/10 06:43:03;;;;;;;9.07;5.50;;;;;;;;;;4985395;28;89340;-72
2023/03/10 06:45:30;;;;;;;9.77;5.75;;;;;;;;;;4985533;28;88057;-71
2023/03/10 06:47:56;;;;;;;9.35;5.95;;;;;;;;;;4989620;28;89012;-71
2023/03/10 06:50:22;;;;;;;13.60;6.22;;;;;;;;;;4998677;28;88466;-71
2023/03/10 06:52:49;;;;;;;7.30;5.55;;;;;;;;;;4997288;28;90239;-71
2023/03/10 06:55:15;;;;;;;10.70;5.65;;;;;;;;;;4994621;28;88116;-71
2023/03/10 06:57:42;;;;;;;7.30;5.20;;;;;;;;;;4991783;28;88973;-71
2023/03/10 07:00:10;;;;;;;9.35;4.63;;;;;;;;;;4996069;28;88779;-72
2023/03/10 07:02:37;;;;;;;7.55;5.07;;;;;;;;;;4994746;28;88949;-72
2023/03/10 07:05:09;;;;;;;15.70;5.13;;;;;;;;;;4985693;28;89213;-72
2023/03/10 07:07:35;;;;;;;8.02;5.60;;;;;;;;;;4987699;28;88568;-72
2023/03/10 07:10:02;;;;;;;7.78;5.25;;;;;;;;;;4978444;28;88607;-72
2023/03/10 07:12:28;;;;;;;11.82;5.38;;;;;;;;;;4997541;28;88189;-73
2023/03/10 07:14:54;;;;;;;8.48;5.15;;;;;;;;;;4994786;28;89338;-73
2023/03/10 07:17:21;;;;;;;8.80;5.53;;;;;;;;;;4991922;28;88519;-72
2023/03/10 07:19:47;;;;;;;9.10;5.65;;;;;;;;;;4994011;28;88027;-71
2023/03/10 07:22:13;;;;;;;10.38;5.82;;;;;;;;;;4998121;28;89790;-73
2023/03/10 07:24:40;;;;;;;10.20;5.40;;;;;;;;;;4996276;28;88973;-71
2023/03/10 07:27:06;;;;;;;8.77;6.20;;;;;;;;;;4983555;28;89380;-72
2023/03/10 07:29:32;;;;;;;10.43;5.88;;;;;;;;;;4980642;28;91613;-71
2023/03/10 07:31:59;;;;;;;11.02;6.00;;;;;;;;;;4983403;28;88361;-72
2023/03/10 07:34:26;;;;;;;7.63;5.53;;;;;;;;;;4983205;28;89799;-71
2023/03/10 07:36:52;;;;;;;13.02;5.35;;;;;;;;;;4998890;28;90136;-71
2023/03/10 07:39:18;;;;;;;7.25;5.13;;;;;;;;;;4987370;28;88067;-70
2023/03/10 07:41:45;;;;;;;7.45;5.60;;;;;;;;;;4989458;28;88802;-70
2023/03/10 07:44:11;;;;;;;7.53;5.60;;;;;;;;;;4987935;28;88871;-71
2023/03/10 07:46:37;;;;;;;10.45;5.20;;;;;;;;;;4985560;28;88658;-71
2023/03/10 07:49:04;;;;;;;8.48;5.43;;;;;;;;;;4993663;28;89365;-70
2023/03/10 07:51:30;;;;;;;7.75;5.25;;;;;;;;;;4997658;28;88105;-70
2023/03/10 07:53:57;;;;;;;9.32;5.53;;;;;;;;;;4987088;28;89053;-70
2023/03/10 07:56:23;;;;;;;8.27;5.05;;;;;;;;;;4992422;28;91493;-70
2023/03/10 07:58:49;;;;;;;8.07;5.53;;;;;;;;;;4996839;28;88211;-70
2023/03/10 08:01:17;;;;;;;8.88;5.93;;;;;;;;;;4997353;28;88719;-70
2023/03/10 08:03:44;;;;;;;6.55;5.43;;;;;;;;;;4998474;28;90169;-70
2023/03/10 08:06:17;;;;;;;7.40;5.20;;;;;;;;;;4983025;28;89079;-70
2023/03/10 08:08:43;;;;;;;8.52;5.40;;;;;;;;;;4982739;28;89117;-70
2023/03/10 08:11:10;;;;;;;7.15;5.22;;;;;;;;;;4984628;28;88282;-70
2023/03/10 08:13:37;;;;;;;6.55;4.82;;;;;;;;;;4987583;28;88962;-71
2023/03/10 08:16:04;;;;;;;7.15;5.53;;;;;;;;;;5002561;28;89153;-71
2023/03/10 08:18:30;;;;;;;7.28;5.07;;;;;;;;;;4997973;28;89318;-71
2023/03/10 08:20:57;;;;;;;6.90;5.13;;;;;;;;;;4992862;28;88700;-70
2023/03/10 08:23:23;;;;;;;8.00;5.93;;;;;;;;;;5008326;28;89256;-71
2023/03/10 08:25:50;;;;;;;6.70;4.95;;;;;;;;;;4984903;28;88025;-71
2023/03/10 08:28:16;;;;;;;6.80;5.18;;;;;;;;;;4982573;28;90053;-71
2023/03/10 08:30:42;;;;;;;8.18;5.85;;;;;;;;;;4991683;28;87894;-71
2023/03/10 08:33:29;;;;;;;10.40;7.75;;;;;;;;;;4980484;28;88561;-70
2023/03/10 08:36:02;;;;;;;6.45;5.00;;;;;;;;;;4983016;28;89015;-69
2023/03/10 08:38:28;;;;;;;7.63;5.20;;;;;;;;;;4995097;28;89121;-70
2023/03/10 08:40:54;;;;;;;7.72;5.22;;;;;;;;;;4987312;28;89549;-69
2023/03/10 08:43:21;;;;;;;7.07;5.28;;;;;;;;;;4990857;28;90189;-70
2023/03/10 08:45:47;;;;;;;5.53;4.70;;;;;;;;;;4991440;28;88500;-69
2023/03/10 08:48:13;;;;;;;6.20;5.03;;;;;;;;;;4993180;28;89724;-69
2023/03/10 08:50:40;;;;;;;6.75;4.88;;;;;;;;;;4988884;28;88822;-69
2023/03/10 08:53:06;;;;;;;4.93;4.43;;;;;;;;;;4991184;28;88646;-69
2023/03/10 08:55:32;;;;;;;7.13;5.03;;;;;;;;;;4991451;28;89028;-70
2023/03/10 08:57:59;;;;;;;7.28;4.90;;;;;;;;;;4991390;28;88202;-72
2023/03/10 09:00:26;;;;;;;7.70;5.68;;;;;;;;;;4995182;28;89130;-70
2023/03/10 09:02:52;;;;;;;7.38;5.07;;;;;;;;;;4991572;28;89810;-69
2023/03/10 09:05:18;;;;;;;6.78;5.00;;;;;;;;;;4985443;28;88301;-69
2023/03/10 09:07:47;;;;;;;7.82;5.20;;;;;;;;;;4979842;28;88722;-69
2023/03/10 09:10:13;;;;;;;7.22;4.90;;;;;;;;;;4992669;28;89194;-70
2023/03/10 09:12:39;;;;;;;6.57;5.28;;;;;;;;;;4989915;28;88569;-69
2023/03/10 09:15:06;;;;;;;8.95;5.30;;;;;;;;;;4991261;28;89102;-70
2023/03/10 09:17:32;;;;;;;6.38;5.10;;;;;;;;;;4989650;28;88050;-70
2023/03/10 09:19:58;;;;;;;6.88;5.35;;;;;;;;;;4987349;28;88653;-70
2023/03/10 09:22:25;;;;;;;7.00;5.22;;;;;;;;;;4994475;28;90321;-70
2023/03/10 09:24:51;;;;;;;7.18;5.22;;;;;;;;;;4991503;28;89054;-70
2023/03/10 09:27:17;;;;;;;7.90;4.85;;;;;;;;;;4996242;28;88782;-70
2023/03/10 09:29:43;;;;;;;8.40;5.38;;;;;;;;;;4994478;28;89804;-70
2023/03/10 09:32:15;;;;;;;7.05;5.15;;;;;;;;;;4997812;28;88212;-70
2023/03/10 09:34:41;;;;;;;5.55;4.82;;;;;;;;;;4992644;28;89016;-71
2023/03/10 09:37:08;;;;;;;7.85;5.35;;;;;;;;;;4992739;28;88124;-70
2023/03/10 09:39:34;;;;;;;5.40;4.47;;;;;;;;;;4995979;28;88823;-70
2023/03/10 09:42:08;;;;;;;4.78;4.20;;;;;;;;;;4998450;28;88578;-70
2023/03/10 09:44:53;;;;;;;4.93;4.28;;;;;;;;;;4998900;28;88157;-70
2023/03/10 09:47:25;;;;;;;9.35;4.35;;;;;;;;;;4999945;28;88048;-70
2023/03/10 09:49:51;;;;;;;6.30;3.85;;;;;;;;;;4997911;28;89662;-70
2023/03/10 09:52:46;;;;;;;4.30;3.90;;;;;;;;;;4997828;28;90797;-70
2023/03/10 09:55:19;;;;;;;4.32;3.33;;;;;;;;;;4997578;28;89070;-70
2023/03/10 09:57:47;;;;;;;4.22;3.42;;;;;;;;;;5000190;28;88015;-70
2023/03/10 10:00:18;;;;;;;4.80;3.67;;;;;;;;;;4988663;28;88874;-71
2023/03/10 10:02:46;;;;;;;4.05;3.20;;;;;;;;;;4996837;28;89286;-70
2023/03/10 10:05:16;;;;;;;4.10;3.00;;;;;;;;;;4991766;28;88891;-70
2023/03/10 10:07:45;;;;;;;3.53;3.20;;;;;;;;;;4994435;28;88558;-70
2023/03/10 10:10:25;;;;;;;5.88;2.80;;;;;;;;;;4991918;28;87220;-70
2023/03/10 10:12:53;;;;;;;3.47;3.17;;;;;;;;;;4995316;28;88303;-70
2023/03/10 10:15:21;;;;;;;6.05;3.20;;;;;;;;;;4988687;28;88800;-71
2023/03/10 10:17:55;;;;;;;4.22;2.92;;;;;;;;;;4993167;28;88978;-70
2023/03/10 10:20:37;;;;;;;5.00;2.92;;;;;;;;;;4987065;28;89359;-70
2023/03/10 10:23:12;;;;;;;4.13;3.10;;;;;;;;;;4996810;28;90183;-69
2023/03/10 10:25:38;;;;;;;3.38;2.92;;;;;;;;;;4996411;28;87978;-70
2023/03/10 10:28:14;;;;;;;4.53;2.92;;;;;;;;;;4997024;28;88217;-70
2023/03/10 10:30:40;;;;;;;2.80;2.58;;;;;;;;;;4997424;28;90098;-70
2023/03/10 10:33:08;;;;;;;4.22;2.80;;;;;;;;;;4999876;28;87963;-70
2023/03/10 10:35:35;;;;;;;3.17;2.88;;;;;;;;;;4984068;28;88445;-70
2023/03/10 10:38:15;;;;;;;3.17;2.80;;;;;;;;;;4997586;28;87987;-70
2023/03/10 10:40:57;;;;;;;3.58;3.28;;;;;;;;;;4981791;28;88616;-71
2023/03/10 10:43:23;;;;;;;3.72;2.70;;;;;;;;;;4986963;28;90022;-71
2023/03/10 10:46:16;;;;;;;2.72;2.53;;;;;;;;;;4998283;28;88126;-71
2023/03/10 10:48:44;;;;;;;5.45;3.00;;;;;;;;;;4977876;28;88179;-71
2023/03/10 10:51:31;;;;;;;2.80;2.60;;;;;;;;;;4978277;28;89277;-70
2023/03/10 10:53:59;;;;;;;2.95;2.75;;;;;;;;;;4985315;28;88043;-70
2023/03/10 10:56:27;;;;;;;3.70;3.03;;;;;;;;;;4979355;28;88708;-71
2023/03/10 10:59:18;;;;;;;3.53;3.00;;;;;;;;;;4994647;28;88053;-71
2023/03/10 11:01:47;;;;;;;3.65;3.30;;;;;;;;;;5002423;28;87801;-70
2023/03/10 11:04:13;;;;;;;2.75;2.55;;;;;;;;;;4994061;28;89181;-71
2023/03/10 11:06:42;;;;;;;3.35;3.03;;;;;;;;;;4995908;28;88964;-70
2023/03/10 11:09:11;;;;;;;3.90;3.50;;;;;;;;;;4993755;28;88818;-71
2023/03/10 11:11:38;;;;;;;4.28;3.78;;;;;;;;;;4994087;28;89226;-70
2023/03/10 11:14:13;;;;;;;4.43;3.50;;;;;;;;;;4981420;28;88905;-70
2023/03/10 11:16:48;;;;;;;5.82;3.30;;;;;;;;;;4988780;28;88794;-72
2023/03/10 11:19:20;;;;;;;4.03;3.38;;;;;;;;;;4998539;28;89089;-71
2023/03/10 11:21:49;;;;;;;7.65;3.85;;;;;;;;;;4996754;28;88929;-71
2023/03/10 11:24:27;;;;;;;4.35;3.72;;;;;;;;;;4998552;28;89334;-70
2023/03/10 11:26:57;;;;;;;3.97;3.58;;;;;;;;;;4986498;28;88433;-70
2023/03/10 11:29:44;;;;;;;4.70;3.70;;;;;;;;;;4978693;28;88025;-70
2023/03/10 11:32:25;;;;;;;5.90;3.78;;;;;;;;;;4967030;28;89080;-70
2023/03/10 11:34:57;;;;;;;4.00;3.60;;;;;;;;;;4994945;28;89331;-70
2023/03/10 11:37:29;;;;;;;4.38;3.72;;;;;;;;;;4980138;28;90053;-70
2023/03/10 11:40:16;;;;;;;3.97;3.58;;;;;;;;;;4980717;28;88838;-71
2023/03/10 11:42:52;;;;;;;3.58;3.28;;;;;;;;;;4983404;28;88112;-71
2023/03/10 11:45:32;;;;;;;4.13;3.60;;;;;;;;;;5002924;28;88852;-71
2023/03/10 11:48:15;;;;;;;3.70;3.30;;;;;;;;;;5001487;28;89072;-71
2023/03/10 11:50:48;;;;;;;3.88;3.47;;;;;;;;;;4980289;28;89085;-71
2023/03/10 11:53:18;;;;;;;3.95;3.45;;;;;;;;;;4992140;28;89195;-70
2023/03/10 11:55:44;;;;;;;4.90;3.13;;;;;;;;;;4989443;28;90448;-70
2023/03/10 11:58:33;;;;;;;3.58;3.25;;;;;;;;;;4997397;28;89133;-70
2023/03/10 12:01:00;;;;;;;3.42;3.05;;;;;;;;;;4970690;28;89828;-71
2023/03/10 12:03:36;;;;;;;3.53;3.22;;;;;;;;;;4974308;28;88539;-71
2023/03/10 12:06:06;;;;;;;3.00;2.72;;;;;;;;;;4964859;28;88392;-70
2023/03/10 12:08:33;;;;;;;3.07;2.83;;;;;;;;;;4950725;28;90445;-72
2023/03/10 12:11:01;;;;;;;2.92;2.63;;;;;;;;;;4955849;28;89104;-70
2023/03/10 12:13:32;;;;;;;3.10;2.80;;;;;;;;;;4962034;28;89779;-70
2023/03/10 12:15:59;;;;;;;3.95;2.72;;;;;;;;;;4969651;28;88172;-70
2023/03/10 12:18:27;;;;;;;3.08;2.65;;;;;;;;;;4969558;28;89255;-70
2023/03/10 12:21:12;;;;;;;2.70;2.50;;;;;;;;;;4964522;28;88816;-70
2023/03/10 12:23:40;;;;;;;4.15;2.40;;;;;;;;;;4969347;28;88313;-70
2023/03/10 12:26:07;;;;;;;3.60;2.15;;;;;;;;;;4955791;28;88786;-70
2023/03/10 12:28:33;;;;;;;2.58;2.15;;;;;;;;;;4973974;28;89046;-71
2023/03/10 12:31:00;;;;;;;2.50;2.30;;;;;;;;;;4971351;28;89214;-70
2023/03/10 12:33:29;;;;;;;2.85;2.40;;;;;;;;;;4965707;28;89509;-70
2023/03/10 12:36:05;;;;;;;3.70;2.50;;;;;;;;;;4974469;28;88146;-70
2023/03/10 12:38:34;;;;;;;3.05;2.83;;;;;;;;;;4969466;28;88897;-70
2023/03/10 12:41:01;;;;;;;2.45;2.25;;;;;;;;;;4977882;28;89122;-70
2023/03/10 12:43:36;;;;;;;3.70;2.55;;;;;;;;;;4987205;28;88013;-70
2023/03/10 12:46:03;;;;;;;2.75;2.20;;;;;;;;;;4984154;28;88035;-70
2023/03/10 12:48:32;;;;;;;2.95;2.40;;;;;;;;;;5017443;28;88967;-70
2023/03/10 12:51:00;;;;;;;2.60;2.40;;;;;;;;;;4980213;28;88811;-70
2023/03/10 12:53:45;;;;;;;2.75;2.42;;;;;;;;;;4980458;28;89493;-70
2023/03/10 12:56:11;;;;;;;2.47;2.28;;;;;;;;;;4985084;28;90933;-70
2023/03/10 12:58:39;;;;;;;2.65;2.45;;;;;;;;;;4995906;28;89267;-70
2023/03/10 13:01:09;;;;;;;2.47;2.28;;;;;;;;;;4997145;28;89297;-70
2023/03/10 13:03:41;;;;;;;3.13;2.83;;;;;;;;;;4978648;28;88204;-71
2023/03/10 13:06:12;;;;;;;2.47;2.28;;;;;;;;;;4984593;28;90595;-71
2023/03/10 13:08:38;;;;;;;2.40;2.20;;;;;;;;;;4990640;28;91791;-70
2023/03/10 13:11:06;;;;;;;2.92;2.63;;;;;;;;;;4981029;28;87947;-71
2023/03/10 13:13:33;;;;;;;2.70;2.50;;;;;;;;;;4984085;28;92376;-71
2023/03/10 13:16:06;;;;;;;2.90;2.60;;;;;;;;;;4987026;28;90356;-70
2023/03/10 13:18:33;;;;;;;2.90;2.60;;;;;;;;;;4999518;28;88443;-70
2023/03/10 13:21:00;;;;;;;3.63;3.15;;;;;;;;;;5005140;28;88999;-71
2023/03/10 13:23:33;;;;;;;3.45;3.08;;;;;;;;;;5026456;28;87621;-71
2023/03/10 13:26:03;;;;;;;3.58;3.17;;;;;;;;;;5024384;28;87474;-71
2023/03/10 13:28:33;;;;;;;3.47;3.10;;;;;;;;;;5022763;28;87674;-71
2023/03/10 13:31:26;;;;;;;6.97;3.87;;;;;;;;;;5022178;28;87972;-71
2023/03/10 13:33:53;;;;;;;5.93;4.22;;;;;;;;;;5016798;28;87886;-71
2023/03/10 13:36:31;;;;;;;4.57;4.05;;;;;;;;;;5017533;28;87758;-71
2023/03/10 13:39:18;;;;;;;5.85;4.35;;;;;;;;;;5028530;28;87457;-71
2023/03/10 13:41:45;;;;;;;6.72;4.82;;;;;;;;;;5003038;27;88911;-69
2023/03/10 13:44:19;;;;;;;6.13;5.22;;;;;;;;;;5019482;28;88102;-71
2023/03/10 13:46:55;;;;;;;6.88;4.90;;;;;;;;;;5026035;28;88068;-71
2023/03/10 13:49:24;;;;;;;6.35;5.32;;;;;;;;;;5021653;28;91727;-71
2023/03/10 13:52:00;;;;;;;6.10;5.03;;;;;;;;;;5006082;28;87851;-70
2023/03/10 13:54:28;;;;;;;6.38;4.60;;;;;;;;;;4995573;28;89075;-71
2023/03/10 13:57:15;;;;;;;6.70;5.05;;;;;;;;;;4984184;28;90118;-71
2023/03/10 13:59:41;;;;;;;7.32;5.32;;;;;;;;;;4990650;28;87885;-71
2023/03/10 14:02:19;;;;;;;10.77;5.65;;;;;;;;;;5005227;28;88356;-71
2023/03/10 14:04:47;;;;;;;9.73;6.00;;;;;;;;;;4983827;28;89446;-70
2023/03/10 14:07:17;;;;;;;7.93;5.72;;;;;;;;;;5001122;28;89024;-71
2023/03/10 14:09:44;;;;;;;6.82;5.70;;;;;;;;;;4996767;28;90218;-71
2023/03/10 14:12:12;;;;;;;7.90;6.00;;;;;;;;;;5000810;28;88247;-70
2023/03/10 14:14:40;;;;;;;7.38;5.63;;;;;;;;;;4999563;28;89086;-71
2023/03/10 14:17:08;;;;;;;11.00;6.88;;;;;;;;;;4996177;28;88950;-70
2023/03/10 14:19:35;;;;;;;7.50;5.75;;;;;;;;;;4980198;28;88220;-70
2023/03/10 14:22:02;;;;;;;8.00;6.10;;;;;;;;;;4990733;28;88821;-70
2023/03/10 14:24:28;;;;;;;11.85;6.75;;;;;;;;;;4999537;28;87279;-70
2023/03/10 14:26:58;;;;;;;7.65;5.68;;;;;;;;;;4996410;28;88154;-70
2023/03/10 14:29:25;;;;;;;9.90;6.63;;;;;;;;;;4999537;28;88423;-70
2023/03/10 14:31:51;;;;;;;7.93;6.20;;;;;;;;;;4997143;28;88815;-70
2023/03/10 14:34:18;;;;;;;9.80;6.28;;;;;;;;;;4980709;28;89888;-70
2023/03/10 14:36:44;;;;;;;9.27;6.60;;;;;;;;;;4979861;28;88891;-70
2023/03/10 14:39:10;;;;;;;10.77;7.18;;;;;;;;;;4979428;28;88143;-70
2023/03/10 14:41:36;;;;;;;8.85;6.70;;;;;;;;;;4980630;28;88819;-70
2023/03/10 14:44:04;;;;;;;10.82;7.78;;;;;;;;;;4993077;28;89099;-70
2023/03/10 14:46:33;;;;;;;12.20;8.10;;;;;;;;;;4989801;28;88911;-70
2023/03/10 14:49:00;;;;;;;13.63;8.85;;;;;;;;;;4995626;28;89517;-70